sensor_id;sensor_type;location;lat;lon;timestamp;P1;durP1;ratioP1;P2;durP2;ratioP2
5742;SDS011;2896;53.500;10.020;2024-03-22T00:00:16;27.33;;;14.37;;
5742;SDS011;2896;53.500;10.020;2024-03-22T00:02:42;26.80;;;15.53;;
5742;SDS011;2896;53.500;10.020;2024-03-22T00:05:09;21.73;;;14.27;;
5742;SDS011;2896;53.500;10.020;2024-03-22T00:07:35;23.77;;;15.23;;
5742;SDS011;2896;53.500;10.020;2024-03-22T00:10:03;19.20;;;14.90;;
5742;SDS011;2896;53.500;10.020;2024-03-22T00:12:30;21.13;;;13.50;;
5742;SDS011;2896;53.500;10.020;2024-03-22T00:14:57;32.20;;;16.07;;
5742;SDS011;2896;53.500;10.020;2024-03-22T00:17:24;19.80;;;13.90;;
5742;SDS011;2896;53.500;10.020;2024-03-22T00:19:51;19.33;;;13.63;;
5742;SDS011;2896;53.500;10.020;2024-03-22T00:22:16;32.30;;;15.73;;
5742;SDS011;2896;53.500;10.020;2024-03-22T00:24:43;32.50;;;16.13;;
5742;SDS011;2896;53.500;10.020;2024-03-22T00:27:09;19.83;;;15.23;;
5742;SDS011;2896;53.500;10.020;2024-03-22T00:29:36;20.47;;;14.30;;
5742;SDS011;2896;53.500;10.020;2024-03-22T00:32:02;21.70;;;14.40;;
5742;SDS011;2896;53.500;10.020;2024-03-22T00:34:31;25.47;;;15.20;;
5742;SDS011;2896;53.500;10.020;2024-03-22T00:36:57;37.30;;;16.80;;
5742;SDS011;2896;53.500;10.020;2024-03-22T00:39:23;24.17;;;15.10;;
5742;SDS011;2896;53.500;10.020;2024-03-22T00:41:49;27.70;;;16.53;;
5742;SDS011;2896;53.500;10.020;2024-03-22T00:44:16;26.40;;;15.43;;
5742;SDS011;2896;53.500;10.020;2024-03-22T00:46:42;26.30;;;15.80;;
5742;SDS011;2896;53.500;10.020;2024-03-22T00:49:08;27.43;;;15.40;;
5742;SDS011;2896;53.500;10.020;2024-03-22T00:51:36;42.43;;;16.30;;
5742;SDS011;2896;53.500;10.020;2024-03-22T00:54:03;21.40;;;15.37;;
5742;SDS011;2896;53.500;10.020;2024-03-22T00:56:28;24.73;;;15.50;;
5742;SDS011;2896;53.500;10.020;2024-03-22T00:58:55;23.63;;;16.10;;
5742;SDS011;2896;53.500;10.020;2024-03-22T01:01:21;27.13;;;15.73;;
5742;SDS011;2896;53.500;10.020;2024-03-22T01:03:48;24.63;;;16.67;;
5742;SDS011;2896;53.500;10.020;2024-03-22T01:06:13;34.17;;;16.10;;
5742;SDS011;2896;53.500;10.020;2024-03-22T01:08:42;27.97;;;15.77;;
5742;SDS011;2896;53.500;10.020;2024-03-22T01:11:07;31.47;;;17.90;;
5742;SDS011;2896;53.500;10.020;2024-03-22T01:13:34;32.03;;;16.27;;
5742;SDS011;2896;53.500;10.020;2024-03-22T01:16:00;29.40;;;16.70;;
5742;SDS011;2896;53.500;10.020;2024-03-22T01:18:27;23.90;;;17.10;;
5742;SDS011;2896;53.500;10.020;2024-03-22T01:20:52;29.00;;;17.00;;
5742;SDS011;2896;53.500;10.020;2024-03-22T01:23:19;30.23;;;18.37;;
5742;SDS011;2896;53.500;10.020;2024-03-22T01:25:46;29.23;;;17.97;;
5742;SDS011;2896;53.500;10.020;2024-03-22T01:28:12;25.90;;;17.80;;
5742;SDS011;2896;53.500;10.020;2024-03-22T01:30:38;32.80;;;19.07;;
5742;SDS011;2896;53.500;10.020;2024-03-22T01:33:05;28.53;;;18.40;;
5742;SDS011;2896;53.500;10.020;2024-03-22T01:35:31;41.40;;;18.80;;
5742;SDS011;2896;53.500;10.020;2024-03-22T01:37:58;29.87;;;19.07;;
5742;SDS011;2896;53.500;10.020;2024-03-22T01:40:24;30.23;;;18.53;;
5742;SDS011;2896;53.500;10.020;2024-03-22T01:42:53;34.00;;;18.57;;
5742;SDS011;2896;53.500;10.020;2024-03-22T01:45:21;43.30;;;21.83;;
5742;SDS011;2896;53.500;10.020;2024-03-22T01:47:49;34.30;;;20.20;;
5742;SDS011;2896;53.500;10.020;2024-03-22T01:50:15;32.10;;;20.50;;
5742;SDS011;2896;53.500;10.020;2024-03-22T01:52:42;29.60;;;19.07;;
5742;SDS011;2896;53.500;10.020;2024-03-22T01:55:08;29.73;;;20.20;;
5742;SDS011;2896;53.500;10.020;2024-03-22T01:57:34;34.40;;;20.80;;
5742;SDS011;2896;53.500;10.020;2024-03-22T02:00:04;36.87;;;22.30;;
5742;SDS011;2896;53.500;10.020;2024-03-22T02:02:33;33.50;;;20.83;;
5742;SDS011;2896;53.500;10.020;2024-03-22T02:04:59;35.47;;;21.77;;
5742;SDS011;2896;53.500;10.020;2024-03-22T02:07:27;31.27;;;21.27;;
5742;SDS011;2896;53.500;10.020;2024-03-22T02:09:55;34.30;;;20.63;;
5742;SDS011;2896;53.500;10.020;2024-03-22T02:12:22;34.90;;;20.20;;
5742;SDS011;2896;53.500;10.020;2024-03-22T02:14:48;40.90;;;23.47;;
5742;SDS011;2896;53.500;10.020;2024-03-22T02:17:17;33.27;;;22.00;;
5742;SDS011;2896;53.500;10.020;2024-03-22T02:19:43;39.40;;;22.60;;
5742;SDS011;2896;53.500;10.020;2024-03-22T02:22:10;32.67;;;21.93;;
5742;SDS011;2896;53.500;10.020;2024-03-22T02:24:37;33.60;;;21.90;;
5742;SDS011;2896;53.500;10.020;2024-03-22T02:27:03;39.53;;;22.70;;
5742;SDS011;2896;53.500;10.020;2024-03-22T02:29:29;38.73;;;23.23;;
5742;SDS011;2896;53.500;10.020;2024-03-22T02:31:56;36.90;;;24.10;;
5742;SDS011;2896;53.500;10.020;2024-03-22T02:34:23;33.17;;;21.50;;
5742;SDS011;2896;53.500;10.020;2024-03-22T02:36:49;37.27;;;23.20;;
5742;SDS011;2896;53.500;10.020;2024-03-22T02:39:15;43.97;;;25.77;;
5742;SDS011;2896;53.500;10.020;2024-03-22T02:41:43;37.10;;;22.77;;
5742;SDS011;2896;53.500;10.020;2024-03-22T02:44:09;44.10;;;25.37;;
5742;SDS011;2896;53.500;10.020;2024-03-22T02:46:35;44.57;;;27.87;;
5742;SDS011;2896;53.500;10.020;2024-03-22T02:49:01;44.77;;;25.80;;
5742;SDS011;2896;53.500;10.020;2024-03-22T02:51:28;52.23;;;28.10;;
5742;SDS011;2896;53.500;10.020;2024-03-22T02:53:53;50.50;;;30.67;;
5742;SDS011;2896;53.500;10.020;2024-03-22T02:56:20;48.17;;;29.10;;
5742;SDS011;2896;53.500;10.020;2024-03-22T02:58:47;49.33;;;29.60;;
5742;SDS011;2896;53.500;10.020;2024-03-22T03:01:15;51.10;;;29.43;;
5742;SDS011;2896;53.500;10.020;2024-03-22T03:03:41;54.30;;;31.63;;
5742;SDS011;2896;53.500;10.020;2024-03-22T03:06:07;53.37;;;28.83;;
5742;SDS011;2896;53.500;10.020;2024-03-22T03:08:33;46.90;;;28.40;;
5742;SDS011;2896;53.500;10.020;2024-03-22T03:11:00;49.43;;;30.90;;
5742;SDS011;2896;53.500;10.020;2024-03-22T03:13:26;52.50;;;30.60;;
5742;SDS011;2896;53.500;10.020;2024-03-22T03:15:55;63.70;;;32.40;;
5742;SDS011;2896;53.500;10.020;2024-03-22T03:18:21;55.50;;;30.13;;
5742;SDS011;2896;53.500;10.020;2024-03-22T03:20:47;50.93;;;31.00;;
5742;SDS011;2896;53.500;10.020;2024-03-22T03:23:13;50.53;;;31.10;;
5742;SDS011;2896;53.500;10.020;2024-03-22T03:25:40;53.17;;;31.70;;
5742;SDS011;2896;53.500;10.020;2024-03-22T03:28:06;54.77;;;32.20;;
5742;SDS011;2896;53.500;10.020;2024-03-22T03:30:33;59.53;;;33.93;;
5742;SDS011;2896;53.500;10.020;2024-03-22T03:33:01;60.07;;;33.93;;
5742;SDS011;2896;53.500;10.020;2024-03-22T03:35:28;55.20;;;31.27;;
5742;SDS011;2896;53.500;10.020;2024-03-22T03:37:54;53.70;;;32.97;;
5742;SDS011;2896;53.500;10.020;2024-03-22T03:40:21;55.40;;;32.50;;
5742;SDS011;2896;53.500;10.020;2024-03-22T03:42:47;63.10;;;35.43;;
5742;SDS011;2896;53.500;10.020;2024-03-22T03:45:13;55.13;;;33.87;;
5742;SDS011;2896;53.500;10.020;2024-03-22T03:47:39;56.83;;;33.60;;
5742;SDS011;2896;53.500;10.020;2024-03-22T03:50:07;56.57;;;35.10;;
5742;SDS011;2896;53.500;10.020;2024-03-22T03:52:34;57.33;;;34.50;;
5742;SDS011;2896;53.500;10.020;2024-03-22T03:55:00;51.13;;;32.60;;
5742;SDS011;2896;53.500;10.020;2024-03-22T03:57:26;63.13;;;34.80;;
5742;SDS011;2896;53.500;10.020;2024-03-22T03:59:53;58.60;;;35.50;;
5742;SDS011;2896;53.500;10.020;2024-03-22T04:02:18;60.63;;;37.13;;
5742;SDS011;2896;53.500;10.020;2024-03-22T04:04:46;63.87;;;35.33;;
5742;SDS011;2896;53.500;10.020;2024-03-22T04:07:13;61.37;;;34.37;;
5742;SDS011;2896;53.500;10.020;2024-03-22T04:09:40;61.40;;;35.27;;
5742;SDS011;2896;53.500;10.020;2024-03-22T04:12:05;64.50;;;37.57;;
5742;SDS011;2896;53.500;10.020;2024-03-22T04:14:32;57.93;;;34.90;;
5742;SDS011;2896;53.500;10.020;2024-03-22T04:16:58;64.43;;;37.73;;
5742;SDS011;2896;53.500;10.020;2024-03-22T04:19:25;63.60;;;37.43;;
5742;SDS011;2896;53.500;10.020;2024-03-22T04:21:50;68.20;;;37.83;;
5742;SDS011;2896;53.500;10.020;2024-03-22T04:24:18;64.30;;;36.07;;
5742;SDS011;2896;53.500;10.020;2024-03-22T04:26:44;60.97;;;36.73;;
5742;SDS011;2896;53.500;10.020;2024-03-22T04:29:11;59.93;;;36.90;;
5742;SDS011;2896;53.500;10.020;2024-03-22T04:31:37;66.40;;;34.43;;
5742;SDS011;2896;53.500;10.020;2024-03-22T04:34:04;68.77;;;38.70;;
5742;SDS011;2896;53.500;10.020;2024-03-22T04:36:30;58.17;;;35.37;;
5742;SDS011;2896;53.500;10.020;2024-03-22T04:38:58;64.80;;;37.53;;
5742;SDS011;2896;53.500;10.020;2024-03-22T04:41:26;62.53;;;36.70;;
5742;SDS011;2896;53.500;10.020;2024-03-22T04:43:52;60.60;;;36.80;;
5742;SDS011;2896;53.500;10.020;2024-03-22T04:46:19;63.67;;;36.03;;
5742;SDS011;2896;53.500;10.020;2024-03-22T04:48:46;64.57;;;37.83;;
5742;SDS011;2896;53.500;10.020;2024-03-22T04:51:11;68.43;;;37.40;;
5742;SDS011;2896;53.500;10.020;2024-03-22T04:53:38;56.20;;;34.13;;
5742;SDS011;2896;53.500;10.020;2024-03-22T04:56:04;70.80;;;37.97;;
5742;SDS011;2896;53.500;10.020;2024-03-22T04:58:33;61.97;;;34.87;;
5742;SDS011;2896;53.500;10.020;2024-03-22T05:00:59;60.73;;;35.33;;
5742;SDS011;2896;53.500;10.020;2024-03-22T05:03:26;56.53;;;33.83;;
5742;SDS011;2896;53.500;10.020;2024-03-22T05:05:52;64.30;;;36.77;;
5742;SDS011;2896;53.500;10.020;2024-03-22T05:08:18;61.60;;;35.80;;
5742;SDS011;2896;53.500;10.020;2024-03-22T05:10:44;62.70;;;37.70;;
5742;SDS011;2896;53.500;10.020;2024-03-22T05:13:11;59.63;;;35.30;;
5742;SDS011;2896;53.500;10.020;2024-03-22T05:15:38;69.73;;;36.77;;
5742;SDS011;2896;53.500;10.020;2024-03-22T05:18:04;64.70;;;37.20;;
5742;SDS011;2896;53.500;10.020;2024-03-22T05:20:30;67.27;;;37.40;;
5742;SDS011;2896;53.500;10.020;2024-03-22T05:22:57;64.37;;;38.23;;
5742;SDS011;2896;53.500;10.020;2024-03-22T05:25:23;70.67;;;38.70;;
5742;SDS011;2896;53.500;10.020;2024-03-22T05:27:50;70.43;;;39.87;;
5742;SDS011;2896;53.500;10.020;2024-03-22T05:30:17;66.37;;;37.03;;
5742;SDS011;2896;53.500;10.020;2024-03-22T05:32:45;70.97;;;38.13;;
5742;SDS011;2896;53.500;10.020;2024-03-22T05:35:10;78.43;;;40.47;;
5742;SDS011;2896;53.500;10.020;2024-03-22T05:37:37;69.03;;;38.83;;
5742;SDS011;2896;53.500;10.020;2024-03-22T05:40:03;74.73;;;40.80;;
5742;SDS011;2896;53.500;10.020;2024-03-22T05:42:31;75.80;;;41.37;;
5742;SDS011;2896;53.500;10.020;2024-03-22T05:44:57;81.20;;;41.73;;
5742;SDS011;2896;53.500;10.020;2024-03-22T05:47:23;79.13;;;41.20;;
5742;SDS011;2896;53.500;10.020;2024-03-22T05:49:50;81.73;;;41.43;;
5742;SDS011;2896;53.500;10.020;2024-03-22T05:52:17;84.67;;;42.97;;
5742;SDS011;2896;53.500;10.020;2024-03-22T05:54:44;81.50;;;42.80;;
5742;SDS011;2896;53.500;10.020;2024-03-22T05:57:10;84.23;;;42.93;;
5742;SDS011;2896;53.500;10.020;2024-03-22T05:59:37;72.43;;;41.10;;
5742;SDS011;2896;53.500;10.020;2024-03-22T06:02:03;85.43;;;43.87;;
5742;SDS011;2896;53.500;10.020;2024-03-22T06:04:30;83.93;;;43.50;;
5742;SDS011;2896;53.500;10.020;2024-03-22T06:06:57;81.30;;;44.17;;
5742;SDS011;2896;53.500;10.020;2024-03-22T06:09:25;84.57;;;42.70;;
5742;SDS011;2896;53.500;10.020;2024-03-22T06:11:59;80.37;;;43.57;;
5742;SDS011;2896;53.500;10.020;2024-03-22T06:14:27;88.50;;;44.47;;
5742;SDS011;2896;53.500;10.020;2024-03-22T06:16:53;86.20;;;43.73;;
5742;SDS011;2896;53.500;10.020;2024-03-22T06:19:19;83.60;;;44.90;;
5742;SDS011;2896;53.500;10.020;2024-03-22T06:21:45;83.30;;;43.20;;
5742;SDS011;2896;53.500;10.020;2024-03-22T06:24:14;86.07;;;43.77;;
5742;SDS011;2896;53.500;10.020;2024-03-22T06:26:39;80.47;;;44.30;;
5742;SDS011;2896;53.500;10.020;2024-03-22T06:29:06;86.57;;;45.50;;
5742;SDS011;2896;53.500;10.020;2024-03-22T06:31:32;83.87;;;45.20;;
5742;SDS011;2896;53.500;10.020;2024-03-22T06:33:58;88.67;;;44.20;;
5742;SDS011;2896;53.500;10.020;2024-03-22T06:36:27;87.80;;;45.33;;
5742;SDS011;2896;53.500;10.020;2024-03-22T06:38:54;88.70;;;43.60;;
5742;SDS011;2896;53.500;10.020;2024-03-22T06:41:21;82.13;;;44.80;;
5742;SDS011;2896;53.500;10.020;2024-03-22T06:43:48;78.13;;;41.80;;
5742;SDS011;2896;53.500;10.020;2024-03-22T06:46:13;84.03;;;43.83;;
5742;SDS011;2896;53.500;10.020;2024-03-22T06:48:40;90.53;;;44.80;;
5742;SDS011;2896;53.500;10.020;2024-03-22T06:51:06;85.60;;;45.90;;
5742;SDS011;2896;53.500;10.020;2024-03-22T06:53:33;88.77;;;46.30;;
5742;SDS011;2896;53.500;10.020;2024-03-22T06:55:58;76.70;;;42.90;;
5742;SDS011;2896;53.500;10.020;2024-03-22T06:58:26;86.60;;;46.47;;
5742;SDS011;2896;53.500;10.020;2024-03-22T07:00:53;84.07;;;45.17;;
5742;SDS011;2896;53.500;10.020;2024-03-22T07:03:20;91.80;;;45.97;;
5742;SDS011;2896;53.500;10.020;2024-03-22T07:05:46;90.67;;;45.67;;
5742;SDS011;2896;53.500;10.020;2024-03-22T07:08:13;90.13;;;45.57;;
5742;SDS011;2896;53.500;10.020;2024-03-22T07:10:39;93.03;;;47.13;;
5742;SDS011;2896;53.500;10.020;2024-03-22T07:13:06;87.00;;;44.80;;
5742;SDS011;2896;53.500;10.020;2024-03-22T07:15:34;82.10;;;44.53;;
5742;SDS011;2896;53.500;10.020;2024-03-22T07:18:00;95.43;;;48.70;;
5742;SDS011;2896;53.500;10.020;2024-03-22T07:20:27;93.67;;;47.60;;
5742;SDS011;2896;53.500;10.020;2024-03-22T07:22:53;85.63;;;46.33;;
5742;SDS011;2896;53.500;10.020;2024-03-22T07:25:19;83.00;;;46.33;;
5742;SDS011;2896;53.500;10.020;2024-03-22T07:27:46;86.53;;;43.83;;
5742;SDS011;2896;53.500;10.020;2024-03-22T07:30:14;85.40;;;47.43;;
5742;SDS011;2896;53.500;10.020;2024-03-22T07:32:42;96.87;;;47.17;;
5742;SDS011;2896;53.500;10.020;2024-03-22T07:35:08;87.40;;;44.80;;
5742;SDS011;2896;53.500;10.020;2024-03-22T07:37:34;89.33;;;44.83;;
5742;SDS011;2896;53.500;10.020;2024-03-22T07:40:00;83.33;;;47.57;;
5742;SDS011;2896;53.500;10.020;2024-03-22T07:42:27;91.63;;;46.03;;
5742;SDS011;2896;53.500;10.020;2024-03-22T07:44:53;75.43;;;43.50;;
5742;SDS011;2896;53.500;10.020;2024-03-22T07:47:20;91.03;;;47.00;;
5742;SDS011;2896;53.500;10.020;2024-03-22T07:49:47;85.97;;;45.73;;
5742;SDS011;2896;53.500;10.020;2024-03-22T07:52:13;88.63;;;45.97;;
5742;SDS011;2896;53.500;10.020;2024-03-22T07:54:39;94.93;;;47.27;;
5742;SDS011;2896;53.500;10.020;2024-03-22T07:57:06;92.47;;;47.23;;
5742;SDS011;2896;53.500;10.020;2024-03-22T07:59:32;91.80;;;47.30;;
5742;SDS011;2896;53.500;10.020;2024-03-22T08:01:58;80.93;;;43.63;;
5742;SDS011;2896;53.500;10.020;2024-03-22T08:04:24;85.03;;;47.47;;
5742;SDS011;2896;53.500;10.020;2024-03-22T08:06:52;94.53;;;48.47;;
5742;SDS011;2896;53.500;10.020;2024-03-22T08:09:18;93.03;;;45.60;;
5742;SDS011;2896;53.500;10.020;2024-03-22T08:11:45;83.00;;;44.43;;
5742;SDS011;2896;53.500;10.020;2024-03-22T08:14:10;91.20;;;45.50;;
5742;SDS011;2896;53.500;10.020;2024-03-22T08:16:37;78.40;;;43.70;;
5742;SDS011;2896;53.500;10.020;2024-03-22T08:19:03;79.03;;;42.33;;
5742;SDS011;2896;53.500;10.020;2024-03-22T08:21:30;79.97;;;43.63;;
5742;SDS011;2896;53.500;10.020;2024-03-22T08:23:57;84.33;;;45.33;;
5742;SDS011;2896;53.500;10.020;2024-03-22T08:26:23;87.67;;;45.40;;
5742;SDS011;2896;53.500;10.020;2024-03-22T08:28:49;79.80;;;43.17;;
5742;SDS011;2896;53.500;10.020;2024-03-22T08:31:16;82.70;;;42.50;;
5742;SDS011;2896;53.500;10.020;2024-03-22T08:33:42;86.20;;;45.07;;
5742;SDS011;2896;53.500;10.020;2024-03-22T08:36:08;82.90;;;43.80;;
5742;SDS011;2896;53.500;10.020;2024-03-22T08:38:34;84.40;;;43.33;;
5742;SDS011;2896;53.500;10.020;2024-03-22T08:41:03;83.83;;;46.10;;
5742;SDS011;2896;53.500;10.020;2024-03-22T08:43:29;86.50;;;44.83;;
5742;SDS011;2896;53.500;10.020;2024-03-22T08:45:55;83.00;;;44.80;;
5742;SDS011;2896;53.500;10.020;2024-03-22T08:48:21;92.53;;;46.03;;
5742;SDS011;2896;53.500;10.020;2024-03-22T08:50:48;89.87;;;44.17;;
5742;SDS011;2896;53.500;10.020;2024-03-22T08:53:14;88.67;;;45.77;;
5742;SDS011;2896;53.500;10.020;2024-03-22T08:55:45;100.13;;;48.33;;
5742;SDS011;2896;53.500;10.020;2024-03-22T08:58:12;94.60;;;47.37;;
5742;SDS011;2896;53.500;10.020;2024-03-22T09:00:39;94.70;;;45.13;;
5742;SDS011;2896;53.500;10.020;2024-03-22T09:03:06;96.40;;;45.83;;
5742;SDS011;2896;53.500;10.020;2024-03-22T09:05:33;101.37;;;47.97;;
5742;SDS011;2896;53.500;10.020;2024-03-22T09:07:58;92.30;;;48.17;;
5742;SDS011;2896;53.500;10.020;2024-03-22T09:10:26;90.17;;;45.37;;
5742;SDS011;2896;53.500;10.020;2024-03-22T09:12:51;107.93;;;48.80;;
5742;SDS011;2896;53.500;10.020;2024-03-22T09:15:19;85.03;;;44.90;;
5742;SDS011;2896;53.500;10.020;2024-03-22T09:17:46;98.23;;;46.10;;
5742;SDS011;2896;53.500;10.020;2024-03-22T09:20:13;94.27;;;43.83;;
5742;SDS011;2896;53.500;10.020;2024-03-22T09:22:41;86.03;;;45.60;;
5742;SDS011;2896;53.500;10.020;2024-03-22T09:25:07;87.63;;;41.73;;
5742;SDS011;2896;53.500;10.020;2024-03-22T09:27:33;89.87;;;46.17;;
5742;SDS011;2896;53.500;10.020;2024-03-22T09:30:00;84.23;;;42.80;;
5742;SDS011;2896;53.500;10.020;2024-03-22T09:32:30;84.00;;;41.80;;
5742;SDS011;2896;53.500;10.020;2024-03-22T09:34:57;85.17;;;43.07;;
5742;SDS011;2896;53.500;10.020;2024-03-22T09:37:22;91.23;;;43.30;;
5742;SDS011;2896;53.500;10.020;2024-03-22T09:39:49;80.67;;;40.00;;
5742;SDS011;2896;53.500;10.020;2024-03-22T09:42:16;95.80;;;43.57;;
5742;SDS011;2896;53.500;10.020;2024-03-22T09:44:44;92.07;;;44.50;;
5742;SDS011;2896;53.500;10.020;2024-03-22T09:47:13;96.30;;;43.63;;
5742;SDS011;2896;53.500;10.020;2024-03-22T09:49:42;86.40;;;42.80;;
5742;SDS011;2896;53.500;10.020;2024-03-22T09:52:11;86.70;;;43.13;;
5742;SDS011;2896;53.500;10.020;2024-03-22T09:54:39;87.67;;;42.73;;
5742;SDS011;2896;53.500;10.020;2024-03-22T09:57:07;86.03;;;43.50;;
5742;SDS011;2896;53.500;10.020;2024-03-22T09:59:37;93.83;;;43.43;;
5742;SDS011;2896;53.500;10.020;2024-03-22T10:02:04;76.93;;;40.73;;
5742;SDS011;2896;53.500;10.020;2024-03-22T10:04:31;83.67;;;41.27;;
5742;SDS011;2896;53.500;10.020;2024-03-22T10:06:58;77.10;;;40.80;;
5742;SDS011;2896;53.500;10.020;2024-03-22T10:09:28;86.97;;;39.30;;
5742;SDS011;2896;53.500;10.020;2024-03-22T10:11:55;72.93;;;37.27;;
5742;SDS011;2896;53.500;10.020;2024-03-22T10:14:21;65.13;;;35.30;;
5742;SDS011;2896;53.500;10.020;2024-03-22T10:16:50;65.20;;;33.80;;
5742;SDS011;2896;53.500;10.020;2024-03-22T10:19:18;64.20;;;32.90;;
5742;SDS011;2896;53.500;10.020;2024-03-22T10:21:44;57.83;;;32.57;;
5742;SDS011;2896;53.500;10.020;2024-03-22T10:24:12;60.10;;;33.73;;
5742;SDS011;2896;53.500;10.020;2024-03-22T10:26:38;61.20;;;33.97;;
5742;SDS011;2896;53.500;10.020;2024-03-22T10:29:05;57.60;;;32.30;;
5742;SDS011;2896;53.500;10.020;2024-03-22T10:31:31;62.00;;;33.47;;
5742;SDS011;2896;53.500;10.020;2024-03-22T10:34:00;64.63;;;34.20;;
5742;SDS011;2896;53.500;10.020;2024-03-22T10:36:29;48.73;;;30.40;;
5742;SDS011;2896;53.500;10.020;2024-03-22T10:38:58;57.00;;;32.43;;
5742;SDS011;2896;53.500;10.020;2024-03-22T10:41:26;55.13;;;30.00;;
5742;SDS011;2896;53.500;10.020;2024-03-22T10:43:53;52.70;;;30.80;;
5742;SDS011;2896;53.500;10.020;2024-03-22T10:46:19;56.93;;;30.70;;
5742;SDS011;2896;53.500;10.020;2024-03-22T10:48:47;70.87;;;29.40;;
5742;SDS011;2896;53.500;10.020;2024-03-22T10:51:14;45.37;;;25.90;;
5742;SDS011;2896;53.500;10.020;2024-03-22T10:53:42;41.47;;;25.07;;
5742;SDS011;2896;53.500;10.020;2024-03-22T10:56:09;46.50;;;26.93;;
5742;SDS011;2896;53.500;10.020;2024-03-22T10:58:40;44.30;;;23.93;;
5742;SDS011;2896;53.500;10.020;2024-03-22T11:01:07;46.50;;;25.23;;
5742;SDS011;2896;53.500;10.020;2024-03-22T11:03:48;40.50;;;23.13;;
5742;SDS011;2896;53.500;10.020;2024-03-22T11:06:17;39.70;;;22.77;;
5742;SDS011;2896;53.500;10.020;2024-03-22T11:08:49;39.73;;;23.40;;
5742;SDS011;2896;53.500;10.020;2024-03-22T11:11:15;42.47;;;23.93;;
5742;SDS011;2896;53.500;10.020;2024-03-22T11:24:58;42.23;;;23.70;;
5742;SDS011;2896;53.500;10.020;2024-03-22T12:02:59;29.87;;;16.67;;
5742;SDS011;2896;53.500;10.020;2024-03-22T12:46:42;16.13;;;11.70;;
5742;SDS011;2896;53.500;10.020;2024-03-22T13:17:37;14.53;;;10.70;;
5742;SDS011;2896;53.500;10.020;2024-03-22T14:58:55;8.40;;;3.70;;
5742;SDS011;2896;53.500;10.020;2024-03-22T15:01:26;9.30;;;3.77;;
5742;SDS011;2896;53.500;10.020;2024-03-22T15:03:54;9.57;;;3.43;;
5742;SDS011;2896;53.500;10.020;2024-03-22T15:15:19;12.30;;;4.80;;
5742;SDS011;2896;53.500;10.020;2024-03-22T15:18:24;16.53;;;4.30;;
5742;SDS011;2896;53.500;10.020;2024-03-22T15:28:17;19.97;;;6.33;;
5742;SDS011;2896;53.500;10.020;2024-03-22T15:36:34;16.30;;;4.17;;
5742;SDS011;2896;53.500;10.020;2024-03-22T15:39:35;21.60;;;4.33;;
5742;SDS011;2896;53.500;10.020;2024-03-22T15:42:35;18.00;;;4.60;;
5742;SDS011;2896;53.500;10.020;2024-03-22T15:45:26;17.10;;;3.90;;
5742;SDS011;2896;53.500;10.020;2024-03-22T15:48:55;25.37;;;5.37;;
5742;SDS011;2896;53.500;10.020;2024-03-22T15:55:26;22.83;;;4.90;;
5742;SDS011;2896;53.500;10.020;2024-03-22T16:01:39;19.93;;;4.20;;
5742;SDS011;2896;53.500;10.020;2024-03-22T16:22:36;17.50;;;4.30;;
5742;SDS011;2896;53.500;10.020;2024-03-22T17:02:35;25.90;;;6.67;;
5742;SDS011;2896;53.500;10.020;2024-03-22T17:32:46;27.87;;;6.60;;
5742;SDS011;2896;53.500;10.020;2024-03-22T18:09:01;24.90;;;5.93;;
